Impacts METAR Board
IDs:

KMKT - Mankato Rgnl, MN, US

Updated at: 2200 UTC 24 Jun 2018
Potential Impact None Slight Moderate High
Time 24/10Z 24/11Z 24/12Z 24/13Z 24/14Z 24/15Z 24/16Z 24/17Z 24/18Z 24/19Z 24/20Z 24/21Z 24/22Z
Temp66 65 67 69 70 72 71 70 70 75 75 73 69
Dewpt63 63 63 64 65 65 65 66 64 66 65 67 66
Altim29.82 29.83 29.86 29.89 29.90 29.91 29.93 29.97 29.93 29.93 29.94 29.96 29.94
VIS10 10 10 10 10 10 10 10 10 10 10 10 10
CIG75 -- 110 60 65 95 65 70 -- -- -- 110 75
CoverOVCFEWOVCBKNOVCBKNOVCOVCFEWCLRFEWOVCOVC
FltCatVFRVFRVFRVFRVFRVFRVFRVFRVFRVFRVFRVFRVFR
WX------------VCTS -RAVCTS -RAVCTS -RA----VCTS RA-RA
WDir1301301601601401507020100110100180130
WSpd6 5 6 6 7 10 7 5 10 12 9 7 7
WGst-- -- -- -- -- -- -- -- -- 17 -- -- --
Raw hourly METARs
KMKT 240956Z AUTO 13006KT 10SM BKN075 OVC110 19/17 A2982 RMK AO2 SLP096 T01890172
KMKT 241056Z AUTO 13005KT 10SM FEW070 18/17 A2983 RMK AO2 SLP099 T01830172
KMKT 241156Z AUTO 16006KT 10SM OVC110 19/17 A2986 RMK AO2 SLP108 T01940172 10194 20183 53009
KMKT 241256Z AUTO 16006KT 10SM BKN060 21/18 A2989 RMK AO2 SLP117 T02060178
KMKT 241356Z AUTO 14007KT 10SM BKN065 OVC095 21/18 A2990 RMK AO2 SLP123 T02110183
KMKT 241456Z AUTO 15010KT 10SM BKN095 BKN110 22/18 A2991 RMK AO2 SLP126 T02220183 51017 TSNO
KMKT 241556Z AUTO 07007KT 10SM VCTS -RA SCT036 SCT046 OVC065 22/18 A2993 RMK AO2 LTG DSNT W TSB52RAB26 SLP134 P0000 T02170183
KMKT 241704Z AUTO 02005KT 10SM VCTS -RA SCT029 BKN070 OVC110 21/19 A2997 RMK AO2 LTG DSNT SW AND W TSE03B04 P0000
KMKT 241805Z AUTO 10010KT 10SM VCTS -RA FEW029 21/18 A2993 RMK AO2 LTG DSNT S TSB1759 P0000
KMKT 241856Z AUTO 11012G17KT 10SM CLR 24/19 A2993 RMK AO2 LTG DSNT S AND SW TSB1759E19RAE30 SLP131 P0000 T02390189
KMKT 241956Z AUTO 10009KT 10SM FEW120 24/18 A2994 RMK AO2 LTG DSNT S AND SW SLP134 T02390183
KMKT 242056Z AUTO 18007KT 10SM VCTS RA FEW070 SCT085 OVC110 23/19 A2996 RMK AO2 LTG DSNT S AND SW TSB56RAB34 SLP144 P0002 60002 T02280194 53009
KMKT 242156Z AUTO 13007KT 10SM -RA BKN075 BKN090 OVC110 21/19 A2994 RMK AO2 TSE11 SLP138 P0009 T02060189



Page loaded:  22:26 UTC  |   03:26 PM Pacific  |   04:26 PM Mountain  |   05:26 PM Central  |   06:26 PM Eastern

 

ADVISORIES

FORECASTS

FORECASTS

OBSERVATIONS

USER TOOLS

ABOUT US